createdAt,value
2023-03-31T00:00:54.100Z,99827.13
2023-03-31T00:03:24.251Z,99831.97
2023-03-31T00:05:59.289Z,99825.25
2023-03-31T00:08:30.487Z,99826.38
2023-03-31T00:11:01.883Z,99830.13
2023-03-31T00:13:29.869Z,99832.78
2023-03-31T00:16:01.785Z,99829.13
2023-03-31T00:18:30.221Z,99824.94
2023-03-31T00:21:25.039Z,99825.28
2023-03-31T00:23:57.462Z,99825.97
2023-03-31T00:26:27.093Z,99822.78
2023-03-31T00:28:55.099Z,99819.38
2023-03-31T00:31:23.370Z,99817.34
2023-03-31T00:33:51.147Z,99809.16
2023-03-31T00:36:30.580Z,99811.97
2023-03-31T00:39:02.829Z,99806.56
2023-03-31T00:41:30.686Z,99805.06
2023-03-31T00:44:34.517Z,99799.59
2023-03-31T00:47:09.007Z,99793.06
2023-03-31T00:49:40.560Z,99793.91
2023-03-31T00:52:08.311Z,99794.84
2023-03-31T00:54:37.688Z,99796.78
2023-03-31T00:57:07.047Z,99786.38
2023-03-31T00:59:37.367Z,99781.47
2023-03-31T01:02:05.986Z,99776.63
2023-03-31T01:04:35.522Z,99770.91
2023-03-31T01:07:10.618Z,99766.56
2023-03-31T01:09:38.921Z,99764.94
2023-03-31T01:12:08.000Z,99778.44
2023-03-31T01:14:35.305Z,99760.97
2023-03-31T01:17:03.083Z,99761.47
2023-03-31T01:19:46.384Z,99761.72
2023-03-31T01:22:13.322Z,99750.03
2023-03-31T01:25:02.306Z,99753.44
2023-03-31T01:27:35.335Z,99749.41
2023-03-31T01:30:20.720Z,99753.28
2023-03-31T01:32:50.956Z,99745.34
2023-03-31T01:35:37.113Z,99749.91
2023-03-31T01:38:23.015Z,99743.03
2023-03-31T01:40:55.978Z,99743.66
2023-03-31T01:43:32.327Z,99745.13
2023-03-31T01:45:59.832Z,99735.38
2023-03-31T01:48:42.306Z,99741.72
2023-03-31T01:51:16.772Z,99739.63
2023-03-31T01:53:51.637Z,99732.34
2023-03-31T01:56:23.806Z,99737.84
2023-03-31T01:59:04.553Z,99725.97
2023-03-31T02:01:56.676Z,99727.06
2023-03-31T02:04:30.271Z,99714.56
2023-03-31T02:07:00.457Z,99717.72
2023-03-31T02:09:30.713Z,99711.03
2023-03-31T02:11:59.135Z,99716.22
2023-03-31T02:14:28.017Z,99709.41
2023-03-31T02:17:02.573Z,99712.91
2023-03-31T02:19:34.860Z,99698.78
2023-03-31T02:22:04.683Z,99701.34
2023-03-31T02:24:33.711Z,99695.31
2023-03-31T02:27:19.655Z,99696.66
2023-03-31T02:29:48.355Z,99688.41
2023-03-31T02:32:16.040Z,99676.97
2023-03-31T02:34:43.200Z,99675.06
2023-03-31T02:37:11.297Z,99678.19
2023-03-31T02:39:40.302Z,99667.63
2023-03-31T02:42:07.795Z,99672.22
2023-03-31T02:44:35.728Z,99664.56
2023-03-31T02:47:08.318Z,99660.50
2023-03-31T02:49:38.705Z,99659.19
2023-03-31T02:52:06.140Z,99661.94
2023-03-31T02:54:49.376Z,99644.59
2023-03-31T02:57:26.378Z,99661.03
2023-03-31T02:59:59.994Z,99651.47
2023-03-31T03:02:46.253Z,99659.09
2023-03-31T03:05:28.529Z,99647.72
2023-03-31T03:07:56.211Z,99642.91
2023-03-31T03:10:29.702Z,99645.25
2023-03-31T03:13:00.362Z,99637.72
2023-03-31T03:15:39.194Z,99640.22
2023-03-31T03:18:06.870Z,99636.00
2023-03-31T03:20:34.496Z,99629.13
2023-03-31T03:23:01.828Z,99628.50
2023-03-31T03:25:30.741Z,99630.19
2023-03-31T03:27:58.018Z,99628.56
2023-03-31T03:30:25.506Z,99628.88
2023-03-31T03:32:54.756Z,99621.72
2023-03-31T03:35:22.316Z,99624.00
2023-03-31T03:37:49.721Z,99619.75
2023-03-31T03:40:17.353Z,99615.88
2023-03-31T03:42:44.797Z,99608.03
2023-03-31T03:45:12.370Z,99607.47
2023-03-31T03:47:39.809Z,99608.22
2023-03-31T03:50:07.904Z,99591.88
2023-03-31T03:52:35.360Z,99588.19
2023-03-31T03:55:02.935Z,99584.50
2023-03-31T03:57:30.294Z,99584.19
2023-03-31T03:59:57.865Z,99586.31
2023-03-31T04:02:28.008Z,99590.56
2023-03-31T04:04:55.171Z,99590.63
2023-03-31T04:07:22.441Z,99580.78
2023-03-31T04:09:49.794Z,99579.47
2023-03-31T04:12:16.870Z,99579.72
2023-03-31T04:14:44.356Z,99574.41
2023-03-31T04:17:16.062Z,99582.06
2023-03-31T04:19:44.218Z,99577.81
2023-03-31T04:22:12.095Z,99566.09
2023-03-31T04:24:39.694Z,99578.09
2023-03-31T04:27:09.392Z,99572.38
2023-03-31T04:29:37.615Z,99568.38
2023-03-31T04:32:05.158Z,99564.47
2023-03-31T04:34:35.736Z,99561.22
2023-03-31T04:37:04.352Z,99558.41
2023-03-31T04:39:31.973Z,99555.81
2023-03-31T04:42:00.353Z,99553.81
2023-03-31T04:44:28.361Z,99551.50
2023-03-31T04:46:56.297Z,99546.34
2023-03-31T04:49:24.998Z,99545.00
2023-03-31T04:51:52.437Z,99535.56
2023-03-31T04:54:20.334Z,99538.59
2023-03-31T04:56:48.480Z,99532.78
2023-03-31T04:59:17.926Z,99527.00
2023-03-31T05:01:45.900Z,99519.88
2023-03-31T05:04:13.765Z,99512.47
2023-03-31T05:06:41.469Z,99511.91
2023-03-31T05:09:09.947Z,99500.00
2023-03-31T05:11:38.500Z,99501.09
2023-03-31T05:14:06.083Z,99502.22
2023-03-31T05:16:33.380Z,99489.38
2023-03-31T05:19:01.021Z,99487.88
2023-03-31T05:21:30.789Z,99491.09
2023-03-31T05:23:58.834Z,99486.53
2023-03-31T05:26:26.966Z,99477.06
2023-03-31T05:28:54.456Z,99470.84
2023-03-31T05:31:22.190Z,99479.38
2023-03-31T05:33:50.314Z,99471.88
2023-03-31T05:36:18.351Z,99462.88
2023-03-31T05:38:46.219Z,99462.13
2023-03-31T05:41:13.334Z,99464.94
2023-03-31T05:43:43.423Z,99460.72
2023-03-31T05:46:10.998Z,99450.63
2023-03-31T05:48:39.265Z,99448.19
2023-03-31T05:51:07.202Z,99455.13
2023-03-31T05:53:35.303Z,99452.00
2023-03-31T05:56:04.069Z,99441.69
2023-03-31T05:58:31.760Z,99441.53
2023-03-31T06:01:02.857Z,99434.66
2023-03-31T06:03:30.836Z,99435.25
2023-03-31T06:05:58.854Z,99431.06
2023-03-31T06:08:26.171Z,99431.88
2023-03-31T06:10:53.516Z,99431.41
2023-03-31T06:13:21.187Z,99426.34
2023-03-31T06:15:58.197Z,99432.81
2023-03-31T06:18:26.144Z,99435.63
2023-03-31T06:20:53.692Z,99432.94
2023-03-31T06:23:21.159Z,99426.13
2023-03-31T06:25:51.937Z,99423.41
2023-03-31T06:28:19.966Z,99422.13
2023-03-31T06:30:47.681Z,99421.66
2023-03-31T06:33:15.015Z,99422.41
2023-03-31T06:35:42.445Z,99424.78
2023-03-31T06:38:10.156Z,99415.59
2023-03-31T06:40:37.961Z,99415.03
2023-03-31T06:43:05.250Z,99412.78
2023-03-31T06:45:32.302Z,99409.94
2023-03-31T06:47:59.571Z,99406.91
2023-03-31T06:50:27.289Z,99409.94
2023-03-31T06:52:55.657Z,99408.75
2023-03-31T06:55:23.457Z,99409.19
2023-03-31T06:57:51.315Z,99410.00
2023-03-31T07:00:21.492Z,99404.34
2023-03-31T07:02:50.696Z,99404.66
2023-03-31T07:05:20.532Z,99399.06
2023-03-31T07:07:49.470Z,99397.97
2023-03-31T07:10:17.971Z,99397.59
2023-03-31T07:12:46.972Z,99401.50
2023-03-31T07:15:14.822Z,99403.53
2023-03-31T07:17:43.370Z,99397.53
2023-03-31T07:20:15.265Z,99397.59
2023-03-31T07:22:43.132Z,99396.03
2023-03-31T07:25:11.045Z,99394.28
2023-03-31T07:27:39.030Z,99396.72
2023-03-31T07:30:07.617Z,99394.28
2023-03-31T07:32:39.733Z,99396.31
2023-03-31T07:35:07.169Z,99391.97
2023-03-31T07:37:42.470Z,99391.00
2023-03-31T07:40:11.515Z,99381.84
2023-03-31T07:42:39.340Z,99379.38
2023-03-31T07:45:08.556Z,99376.41
2023-03-31T07:47:36.537Z,99380.72
2023-03-31T07:50:06.161Z,99370.84
2023-03-31T07:52:36.032Z,99366.75
2023-03-31T07:55:04.420Z,99365.47
2023-03-31T07:57:31.611Z,99364.97
2023-03-31T07:59:58.913Z,99360.31
2023-03-31T08:02:26.957Z,99356.53
2023-03-31T08:04:55.830Z,99181.06
2023-03-31T08:07:23.195Z,99349.38
2023-03-31T08:09:57.257Z,99344.31
2023-03-31T08:12:25.108Z,99341.81
2023-03-31T08:14:53.986Z,99337.81
2023-03-31T08:17:21.183Z,99341.09
2023-03-31T08:19:48.648Z,99338.50
2023-03-31T08:22:15.696Z,99334.78
2023-03-31T08:24:44.305Z,99321.84
2023-03-31T08:27:12.248Z,99326.09
2023-03-31T08:29:40.101Z,99325.28
2023-03-31T08:32:08.008Z,99324.06
2023-03-31T08:34:38.449Z,99331.16
2023-03-31T08:37:06.017Z,99322.00
2023-03-31T08:39:34.704Z,99331.16
2023-03-31T08:42:04.969Z,99328.38
2023-03-31T08:44:32.314Z,99315.66
2023-03-31T08:47:01.067Z,99327.19
2023-03-31T08:49:30.198Z,99319.84
2023-03-31T08:52:04.066Z,99316.41
2023-03-31T08:54:37.486Z,99321.41
2023-03-31T08:57:14.103Z,99315.50
2023-03-31T08:59:44.881Z,99317.56
2023-03-31T09:02:30.874Z,99312.00
2023-03-31T09:05:17.642Z,99308.63
2023-03-31T09:08:09.907Z,99305.00
2023-03-31T09:10:57.965Z,99307.72
2023-03-31T09:13:33.395Z,99308.56
2023-03-31T09:16:04.441Z,99299.03
2023-03-31T09:18:36.832Z,99293.41
2023-03-31T09:21:22.549Z,99294.13
2023-03-31T09:24:04.522Z,99296.38
2023-03-31T09:26:47.458Z,99290.44
2023-03-31T09:29:19.215Z,99282.72
2023-03-31T09:31:47.366Z,99277.56
2023-03-31T09:34:22.982Z,99281.34
2023-03-31T09:36:50.214Z,99276.81
2023-03-31T09:39:17.853Z,99271.16
2023-03-31T09:41:46.444Z,99269.09
2023-03-31T09:44:23.831Z,99262.88
2023-03-31T09:46:52.075Z,99267.06
2023-03-31T09:49:21.956Z,99259.66
2023-03-31T09:51:59.715Z,99251.03
2023-03-31T09:54:31.282Z,99259.53
2023-03-31T09:56:59.464Z,99254.19
2023-03-31T09:59:37.521Z,99245.47
2023-03-31T10:02:17.926Z,99244.91
2023-03-31T10:04:47.234Z,99245.97
2023-03-31T10:07:14.726Z,99240.94
2023-03-31T10:09:43.642Z,99237.47
2023-03-31T10:12:20.405Z,99228.88
2023-03-31T10:14:49.145Z,99227.78
2023-03-31T10:17:19.699Z,99228.84
2023-03-31T10:19:51.668Z,99225.59
2023-03-31T10:22:33.397Z,99233.09
2023-03-31T10:25:27.795Z,99225.28
2023-03-31T10:27:56.515Z,99222.34
2023-03-31T10:30:25.565Z,99221.28
2023-03-31T10:32:54.658Z,99215.84
2023-03-31T10:35:34.706Z,99213.72
2023-03-31T10:38:16.406Z,99209.41
2023-03-31T10:40:55.153Z,99207.13
2023-03-31T10:43:27.455Z,99211.28
2023-03-31T10:45:56.711Z,99206.88
2023-03-31T10:48:31.563Z,99191.38
2023-03-31T10:51:06.409Z,99204.75
2023-03-31T10:53:45.770Z,99196.59
2023-03-31T10:56:24.300Z,99196.94
2023-03-31T10:59:04.650Z,99193.50
2023-03-31T11:01:48.093Z,99186.97
2023-03-31T11:04:19.408Z,99191.44
2023-03-31T11:07:05.201Z,99185.78
2023-03-31T11:09:42.138Z,99180.28
2023-03-31T11:12:14.057Z,99177.41
2023-03-31T11:15:03.527Z,99174.50
2023-03-31T11:17:44.237Z,99176.19
2023-03-31T11:20:30.806Z,99170.91
2023-03-31T11:22:57.864Z,99169.53
2023-03-31T11:25:28.720Z,99172.63
2023-03-31T11:27:56.074Z,99168.97
2023-03-31T11:30:24.707Z,99168.75
2023-03-31T11:32:53.425Z,99167.66
2023-03-31T11:35:35.984Z,99169.31
2023-03-31T11:38:23.864Z,99166.19
2023-03-31T11:41:20.745Z,99163.69
2023-03-31T11:43:52.611Z,99150.78
2023-03-31T11:46:22.888Z,99151.41
2023-03-31T11:48:58.726Z,99153.09
2023-03-31T11:51:30.887Z,99140.13
2023-03-31T11:54:03.534Z,99138.84
2023-03-31T11:56:35.931Z,99132.59
2023-03-31T11:59:04.490Z,99136.94
2023-03-31T12:01:54.892Z,99129.84
2023-03-31T12:04:40.445Z,99132.91
2023-03-31T12:07:15.905Z,99138.91
2023-03-31T12:10:09.361Z,99125.50
2023-03-31T12:12:42.839Z,99123.25
2023-03-31T12:15:22.206Z,99116.31
2023-03-31T12:18:09.387Z,99124.78
2023-03-31T12:21:02.915Z,99114.84
2023-03-31T12:23:33.996Z,99112.78
2023-03-31T12:26:10.262Z,99116.25
2023-03-31T12:28:39.091Z,99108.31
2023-03-31T12:31:08.269Z,99108.94
2023-03-31T12:33:41.113Z,99104.72
2023-03-31T12:36:33.219Z,99107.28
2023-03-31T12:39:13.448Z,99107.88
2023-03-31T12:41:46.471Z,99098.31
2023-03-31T12:44:14.518Z,99101.41
2023-03-31T12:47:00.645Z,99095.75
2023-03-31T12:49:35.805Z,99096.44
2023-03-31T12:52:21.785Z,99093.03
2023-03-31T12:55:04.192Z,99091.09
2023-03-31T12:57:33.155Z,99087.78
2023-03-31T13:00:22.435Z,99073.09
2023-03-31T13:02:51.186Z,99074.03
2023-03-31T13:05:38.027Z,99076.16
2023-03-31T13:08:06.811Z,99074.56
2023-03-31T13:10:33.850Z,99066.75
2023-03-31T13:13:03.769Z,99068.31
2023-03-31T13:15:32.564Z,99058.03
2023-03-31T13:18:01.443Z,99055.16
2023-03-31T13:20:38.702Z,99053.25
2023-03-31T13:23:05.821Z,99055.22
2023-03-31T13:25:38.121Z,99051.03
2023-03-31T13:28:11.557Z,99050.97
2023-03-31T13:30:45.674Z,99047.69
2023-03-31T13:33:17.756Z,99043.47
2023-03-31T13:35:48.034Z,99044.38
2023-03-31T13:38:34.159Z,99045.88
2023-03-31T13:41:11.096Z,99044.06
2023-03-31T13:43:44.068Z,99040.25
2023-03-31T13:46:36.855Z,99042.31
2023-03-31T13:49:13.907Z,99040.06
2023-03-31T13:52:03.351Z,99038.13
2023-03-31T13:54:35.347Z,99033.31
2023-03-31T13:57:21.547Z,99033.06
2023-03-31T14:00:12.978Z,99031.50
2023-03-31T14:02:52.362Z,99028.38
2023-03-31T14:05:19.812Z,99028.97
2023-03-31T14:07:50.174Z,99034.44
2023-03-31T14:10:28.739Z,99034.47
2023-03-31T14:13:18.225Z,99032.59
2023-03-31T14:15:54.106Z,99027.06
2023-03-31T14:18:33.967Z,99025.56
2023-03-31T14:21:04.236Z,99024.72
2023-03-31T14:23:38.407Z,99016.59
2023-03-31T14:26:26.524Z,99019.94
2023-03-31T14:29:14.052Z,99015.56
2023-03-31T14:31:50.775Z,99015.09
2023-03-31T14:34:18.057Z,99022.09
2023-03-31T14:36:47.296Z,99019.00
2023-03-31T14:39:17.144Z,99011.50
2023-03-31T14:41:46.020Z,99015.00
2023-03-31T14:44:18.803Z,99012.56
2023-03-31T14:46:46.947Z,99011.53
2023-03-31T14:49:33.231Z,99007.28
2023-03-31T14:52:03.974Z,99009.66
2023-03-31T14:54:34.340Z,99009.63
2023-03-31T14:57:02.475Z,99003.03
2023-03-31T14:59:31.091Z,98998.72
2023-03-31T15:01:59.701Z,99006.91
2023-03-31T15:04:41.432Z,99001.19
2023-03-31T15:07:09.894Z,98996.72
2023-03-31T15:09:39.134Z,99001.19
2023-03-31T15:12:12.817Z,98998.16
2023-03-31T15:14:45.359Z,98996.13
2023-03-31T15:17:33.332Z,98997.44
2023-03-31T15:20:01.750Z,98992.75
2023-03-31T15:22:30.483Z,99002.63
2023-03-31T15:24:58.201Z,99002.69
2023-03-31T15:27:35.783Z,98998.72
2023-03-31T15:30:07.097Z,99004.16
2023-03-31T15:32:39.351Z,98991.38
2023-03-31T15:37:56.729Z,98996.56
2023-03-31T15:40:32.089Z,99006.91
2023-03-31T15:43:20.581Z,98995.72
2023-03-31T15:45:54.450Z,98993.06
2023-03-31T15:48:22.082Z,98993.97
2023-03-31T15:50:49.466Z,98985.41
2023-03-31T15:53:28.742Z,98988.53
2023-03-31T15:55:57.407Z,98989.19
2023-03-31T15:58:44.807Z,98983.63
2023-03-31T16:01:16.005Z,98988.31
2023-03-31T16:03:46.011Z,98990.09
2023-03-31T16:06:21.401Z,98991.69
2023-03-31T16:08:58.299Z,98984.66
2023-03-31T16:11:28.430Z,98987.28
2023-03-31T16:14:00.018Z,98983.50
2023-03-31T16:16:28.514Z,98994.94
2023-03-31T16:19:17.429Z,98991.13
2023-03-31T16:21:50.250Z,98993.91
2023-03-31T16:24:17.564Z,98998.16
2023-03-31T16:26:45.097Z,98994.94
2023-03-31T16:29:20.936Z,98998.75
2023-03-31T16:31:48.304Z,98994.63
2023-03-31T16:34:15.308Z,98989.69
2023-03-31T16:36:42.950Z,98996.00
2023-03-31T16:39:10.826Z,98998.53
2023-03-31T16:41:38.789Z,99000.13
2023-03-31T16:44:06.582Z,99000.22
2023-03-31T16:46:34.111Z,99005.06
2023-03-31T16:49:01.548Z,99005.00
2023-03-31T16:51:28.655Z,98996.56
2023-03-31T16:53:58.376Z,98998.16
2023-03-31T16:56:28.718Z,98998.28
2023-03-31T16:58:56.385Z,99010.81
2023-03-31T17:01:24.861Z,99010.75
2023-03-31T17:03:53.839Z,99008.03
2023-03-31T17:06:21.146Z,99006.88
2023-03-31T17:08:48.487Z,99008.44
2023-03-31T17:11:16.146Z,99012.66
2023-03-31T17:13:45.007Z,99004.88
2023-03-31T17:18:43.472Z,99004.06
2023-03-31T17:21:11.360Z,99010.41
2023-03-31T17:23:40.026Z,99009.03
2023-03-31T17:26:10.439Z,99011.16
2023-03-31T17:28:37.939Z,99015.31
2023-03-31T17:31:15.241Z,99019.63
2023-03-31T17:33:42.644Z,99014.81
2023-03-31T17:36:10.312Z,99021.28
2023-03-31T17:38:39.252Z,99022.72
2023-03-31T17:41:09.060Z,99017.56
2023-03-31T17:43:38.365Z,99023.75
2023-03-31T17:46:13.351Z,99032.41
2023-03-31T17:48:41.084Z,99030.22
2023-03-31T17:51:09.456Z,99033.19
2023-03-31T17:53:37.041Z,99035.38
2023-03-31T17:56:05.180Z,99043.50
2023-03-31T17:58:32.546Z,99035.34
2023-03-31T18:01:08.358Z,99037.03
2023-03-31T18:03:35.815Z,99048.06
2023-03-31T18:06:04.818Z,99044.84
2023-03-31T18:08:32.487Z,99042.91
2023-03-31T18:11:00.747Z,99042.41
2023-03-31T18:13:37.804Z,99047.84
2023-03-31T18:16:05.486Z,99049.44
2023-03-31T18:18:32.722Z,99048.34
2023-03-31T18:21:03.481Z,99055.41
2023-03-31T18:23:31.141Z,99054.06
2023-03-31T18:25:58.437Z,99060.25
2023-03-31T18:28:25.612Z,99059.75
2023-03-31T18:30:53.724Z,99065.16
2023-03-31T18:33:23.340Z,99063.81
2023-03-31T18:35:51.045Z,99065.69
2023-03-31T18:38:21.135Z,99058.59
2023-03-31T18:40:49.715Z,99068.91
2023-03-31T18:43:18.488Z,99065.34
2023-03-31T18:45:49.617Z,99071.03
2023-03-31T18:48:19.017Z,99074.81
2023-03-31T18:50:47.448Z,99075.84
2023-03-31T18:53:19.161Z,99076.94
2023-03-31T18:55:49.807Z,99072.34
2023-03-31T18:58:17.488Z,99076.69
2023-03-31T19:00:46.306Z,99074.25
2023-03-31T19:03:13.766Z,99083.44
2023-03-31T19:05:41.772Z,99077.47
2023-03-31T19:08:09.542Z,99074.81
2023-03-31T19:10:36.740Z,99071.00
2023-03-31T19:13:04.238Z,99080.69
2023-03-31T19:15:32.828Z,99083.66
2023-03-31T19:18:00.628Z,99085.00
2023-03-31T19:20:28.711Z,99080.63
2023-03-31T19:22:56.459Z,99087.16
2023-03-31T19:25:24.181Z,99084.44
2023-03-31T19:27:52.412Z,99089.34
2023-03-31T19:30:23.685Z,99092.00
2023-03-31T19:32:51.314Z,99084.41
2023-03-31T19:35:19.705Z,99093.06
2023-03-31T19:37:53.100Z,99095.69
2023-03-31T19:40:20.525Z,99098.59
2023-03-31T19:42:48.848Z,99090.75
2023-03-31T19:45:15.823Z,99096.69
2023-03-31T19:47:43.572Z,99083.53
2023-03-31T19:50:17.308Z,99087.56
2023-03-31T19:52:47.915Z,99087.59
2023-03-31T19:55:16.685Z,99089.56
2023-03-31T19:57:44.334Z,99095.44
2023-03-31T20:00:12.646Z,99090.16
2023-03-31T20:02:40.066Z,99092.44
2023-03-31T20:05:08.845Z,99097.81
2023-03-31T20:07:36.242Z,99085.25
2023-03-31T20:10:04.813Z,99088.31
2023-03-31T20:12:32.525Z,99088.31
2023-03-31T20:15:00.848Z,99090.03
2023-03-31T20:17:28.274Z,99086.84
2023-03-31T20:19:55.743Z,99094.00
2023-03-31T20:22:23.328Z,99089.72
2023-03-31T20:24:52.182Z,99093.97
2023-03-31T20:27:28.380Z,99097.19
2023-03-31T20:29:59.235Z,99087.75
2023-03-31T20:32:25.993Z,99092.25
2023-03-31T20:34:55.087Z,99095.34
2023-03-31T20:37:23.315Z,99093.19
2023-03-31T20:39:51.329Z,99092.41
2023-03-31T20:42:19.170Z,99093.78
2023-03-31T20:44:47.446Z,99092.47
2023-03-31T20:47:14.872Z,99080.88
2023-03-31T20:49:42.380Z,99094.53
2023-03-31T20:52:10.517Z,99093.97
2023-03-31T20:54:47.476Z,99097.63
2023-03-31T20:57:15.617Z,99098.31
2023-03-31T20:59:43.213Z,99099.44
2023-03-31T21:02:12.632Z,99101.81
2023-03-31T21:04:40.527Z,99096.66
2023-03-31T21:07:08.159Z,99098.53
2023-03-31T21:09:36.022Z,99106.41
2023-03-31T21:12:04.503Z,99099.16
2023-03-31T21:14:32.316Z,99112.19
2023-03-31T21:16:59.953Z,99104.66
2023-03-31T21:19:28.172Z,99110.38
2023-03-31T21:22:02.282Z,99109.25
2023-03-31T21:24:30.309Z,99110.66
2023-03-31T21:26:58.174Z,99110.44
2023-03-31T21:29:25.172Z,99116.50
2023-03-31T21:31:52.482Z,99117.09
2023-03-31T21:34:22.506Z,99112.59
2023-03-31T21:36:50.992Z,99117.75
2023-03-31T21:39:20.017Z,99118.22
2023-03-31T21:41:47.436Z,99116.53
2023-03-31T21:44:16.206Z,99116.97
2023-03-31T21:46:45.249Z,99109.41
2023-03-31T21:49:12.922Z,99121.31
2023-03-31T21:51:40.490Z,99118.47
2023-03-31T21:54:08.135Z,99124.00
2023-03-31T21:56:35.483Z,99116.22
2023-03-31T21:59:04.424Z,99117.53
2023-03-31T22:01:32.498Z,99114.28
2023-03-31T22:04:00.452Z,99116.66
2023-03-31T22:06:29.907Z,99117.53
2023-03-31T22:08:57.451Z,99121.44
2023-03-31T22:11:25.059Z,99124.72
2023-03-31T22:13:52.350Z,99122.97
2023-03-31T22:16:20.793Z,99117.56
2023-03-31T22:18:48.637Z,99124.25
2023-03-31T22:21:23.382Z,99128.69
2023-03-31T22:23:53.964Z,99127.00
2023-03-31T22:26:23.329Z,99121.97
2023-03-31T22:28:50.851Z,99132.66
2023-03-31T22:31:17.751Z,99122.28
2023-03-31T22:33:46.490Z,99129.63
2023-03-31T22:36:13.897Z,99132.56
2023-03-31T22:38:42.035Z,99123.22
2023-03-31T22:41:09.306Z,99125.63
2023-03-31T22:43:37.874Z,99131.16
2023-03-31T22:46:05.446Z,99136.41
2023-03-31T22:48:34.391Z,99138.16
2023-03-31T22:51:12.205Z,99134.75
2023-03-31T22:53:38.955Z,99137.00
2023-03-31T22:56:07.465Z,99134.59
2023-03-31T22:58:34.759Z,99131.47
2023-03-31T23:01:02.363Z,99143.38
2023-03-31T23:03:30.006Z,99138.75
2023-03-31T23:06:03.452Z,99141.25
2023-03-31T23:08:30.909Z,99143.00
2023-03-31T23:10:59.411Z,99144.63
2023-03-31T23:13:27.097Z,99142.78
2023-03-31T23:15:54.772Z,99141.84
2023-03-31T23:18:24.313Z,99143.56
2023-03-31T23:20:53.054Z,99141.53
2023-03-31T23:23:20.457Z,99137.78
2023-03-31T23:25:47.884Z,99144.41
2023-03-31T23:28:15.229Z,99152.50
2023-03-31T23:30:42.567Z,99155.47
2023-03-31T23:33:09.824Z,99145.94
2023-03-31T23:35:36.997Z,99142.19
2023-03-31T23:38:07.308Z,99148.13
2023-03-31T23:40:35.225Z,99150.91
2023-03-31T23:43:05.155Z,99158.00
2023-03-31T23:45:32.548Z,99153.22
2023-03-31T23:47:59.956Z,99162.13
2023-03-31T23:50:28.896Z,99153.94
2023-03-31T23:52:59.521Z,99157.56
2023-03-31T23:55:27.233Z,99158.00
2023-03-31T23:57:54.776Z,99149.78
